Terminal Aerodrome Forecast
Issued by NWS Blacksburg, VA

Current Version | Previous Version | Text Only | Print | Product List | Glossary Off
Versions: 1 2 3 4 5 6 7 8 9 10 11 12 13 14 15 16 17 18 19 20 21 22 23 24 25 26 27 28 29 30 31 32 33 34 35 36 37 38

508
FTUS41 KRNK 120520
TAFBLF
TAF
KBLF 120520Z 1206/1306 24022KT P6SM BKN100
     FM120800 25013G23KT P6SM BKN035
     FM121100 28016G26KT 6SM -SHSN OVC012
      TEMPO 1213/1217 1SM -SHSN BR OVC008
     FM121800 29017G27KT 4SM -SHSN BLSN OVC020
     FM130000 30015G25KT 5SM BLSN OVC023=

USA.gov is the U.S. government's official web portal to all federal, state and local government web resources and services.